ROT361J LROP-EDDF
Flight info
| Callsign | ROT361J |
|---|---|
| Flight time | N/A |
| Altitude | 34000 |
| Route | SOKRU DCT OXDOC DCT DEGET DCT ARSIN DCT SUBEN DCT AKINI T161 DEBHI DEBHI1C |
| Aircraft | B738/M-SDE2E3FGHIRWXY/LB1 |
Departure
| Time | 2026-05-01 13:55 |
|---|---|
| Airport | Bucharest Henri Coandă International Airport (LROP) |
Arrival
| Time | N/A |
|---|---|
| Airport | Frankfurt Main Airport (EDDF) |
| Time | Latitude | Longitude | Altitude | Speed | Heading |
|---|---|---|---|---|---|
| 2026-05-01 13:15 | 44.57020 | 26.08026 | 322 ft | 0 kts | 354° |
| 2026-05-01 13:46 | 44.57008 | 26.08027 | 322 ft | 4 kts | 354° |
| 2026-05-01 13:46 | 44.56981 | 26.08031 | 321 ft | 4 kts | 354° |
| 2026-05-01 13:46 | 44.56959 | 26.08034 | 320 ft | 4 kts | 358° |
| 2026-05-01 13:47 | 44.56936 | 26.08027 | 320 ft | 4 kts | 46° |
| 2026-05-01 13:47 | 44.56926 | 26.07997 | 321 ft | 3 kts | 84° |
| 2026-05-01 13:47 | 44.56923 | 26.07960 | 320 ft | 4 kts | 84° |
| 2026-05-01 13:47 | 44.56922 | 26.07937 | 320 ft | 0 kts | 84° |
| 2026-05-01 13:50 | 44.56922 | 26.07938 | 320 ft | 1 kts | 84° |
| 2026-05-01 13:50 | 44.56924 | 26.07969 | 321 ft | 5 kts | 84° |
| 2026-05-01 13:51 | 44.56930 | 26.08045 | 320 ft | 11 kts | 84° |
| 2026-05-01 13:51 | 44.56939 | 26.08173 | 322 ft | 15 kts | 84° |
| 2026-05-01 13:51 | 44.56950 | 26.08315 | 320 ft | 14 kts | 84° |
| 2026-05-01 13:51 | 44.57019 | 26.08387 | 321 ft | 14 kts | 355° |
| 2026-05-01 13:52 | 44.57111 | 26.08374 | 320 ft | 13 kts | 354° |
| 2026-05-01 13:52 | 44.57198 | 26.08364 | 322 ft | 11 kts | 6° |
| 2026-05-01 13:52 | 44.57230 | 26.08453 | 322 ft | 11 kts | 82° |
| 2026-05-01 13:52 | 44.57287 | 26.08496 | 322 ft | 11 kts | 356° |
| 2026-05-01 13:53 | 44.57364 | 26.08486 | 322 ft | 12 kts | 354° |
| 2026-05-01 13:53 | 44.57540 | 26.08460 | 320 ft | 13 kts | 354° |
| 2026-05-01 13:53 | 44.57626 | 26.08454 | 322 ft | 12 kts | 11° |
| 2026-05-01 13:54 | 44.57670 | 26.08545 | 323 ft | 12 kts | 82° |
| 2026-05-01 13:54 | 44.57685 | 26.08742 | 321 ft | 45 kts | 84° |
| 2026-05-01 13:54 | 44.57743 | 26.09519 | 321 ft | 113 kts | 84° |
| 2026-05-01 13:54 | 44.57848 | 26.10892 | 335 ft | 167 kts | 83° |
| 2026-05-01 13:55 | 44.57957 | 26.12567 | 1034 ft | 168 kts | 83° |
| 2026-05-01 13:55 | 44.58074 | 26.14185 | 1941 ft | 173 kts | 81° |
| 2026-05-01 13:55 | 44.58227 | 26.15980 | 2403 ft | 197 kts | 81° |
| 2026-05-01 13:55 | 44.58393 | 26.17936 | 3040 ft | 205 kts | 81° |
| 2026-05-01 13:56 | 44.58568 | 26.19972 | 3505 ft | 217 kts | 78° |
| 2026-05-01 13:56 | 44.59256 | 26.21918 | 3798 ft | 234 kts | 40° |
| 2026-05-01 13:56 | 44.60765 | 26.22914 | 4211 ft | 255 kts | 6° |
| 2026-05-01 13:56 | 44.62525 | 26.22553 | 5096 ft | 257 kts | 344° |
| 2026-05-01 13:57 | 44.64225 | 26.21781 | 6035 ft | 260 kts | 343° |
| 2026-05-01 13:57 | 44.65947 | 26.21019 | 6970 ft | 258 kts | 343° |
| 2026-05-01 13:57 | 44.67674 | 26.20290 | 7832 ft | 260 kts | 344° |
| 2026-05-01 13:57 | 44.69414 | 26.19578 | 8659 ft | 263 kts | 345° |
| 2026-05-01 13:58 | 44.71184 | 26.18871 | 9452 ft | 266 kts | 345° |
| 2026-05-01 13:58 | 44.72973 | 26.18160 | 10316 ft | 267 kts | 345° |
| 2026-05-01 13:58 | 44.74801 | 26.17437 | 10818 ft | 282 kts | 345° |
| 2026-05-01 13:58 | 44.76645 | 26.16191 | 10978 ft | 310 kts | 323° |
| 2026-05-01 13:59 | 44.78092 | 26.13804 | 11273 ft | 332 kts | 304° |
| 2026-05-01 13:59 | 44.79271 | 26.11010 | 11836 ft | 341 kts | 301° |
| 2026-05-01 13:59 | 44.80244 | 26.07943 | 12547 ft | 346 kts | 293° |
| 2026-05-01 13:59 | 44.81082 | 26.04737 | 13268 ft | 351 kts | 292° |
| 2026-05-01 14:00 | 44.81905 | 26.01423 | 13957 ft | 357 kts | 291° |
| 2026-05-01 14:00 | 44.82726 | 25.98106 | 14593 ft | 361 kts | 291° |
| 2026-05-01 14:00 | 44.83562 | 25.94762 | 15274 ft | 363 kts | 292° |
| 2026-05-01 14:00 | 44.84398 | 25.91456 | 15962 ft | 364 kts | 292° |
| 2026-05-01 14:01 | 44.85259 | 25.88081 | 16595 ft | 368 kts | 292° |
| 2026-05-01 14:01 | 44.86132 | 25.84675 | 17225 ft | 371 kts | 292° |
| 2026-05-01 14:01 | 44.87015 | 25.81235 | 17874 ft | 375 kts | 292° |
| 2026-05-01 14:01 | 44.87906 | 25.77769 | 18511 ft | 378 kts | 292° |
| 2026-05-01 14:02 | 44.88802 | 25.74279 | 19069 ft | 380 kts | 292° |
| 2026-05-01 14:02 | 44.89705 | 25.70760 | 19627 ft | 383 kts | 292° |
| 2026-05-01 14:02 | 44.90611 | 25.67217 | 20187 ft | 385 kts | 292° |
| 2026-05-01 14:02 | 44.91523 | 25.63653 | 20740 ft | 388 kts | 291° |
| 2026-05-01 14:03 | 44.92440 | 25.60058 | 21269 ft | 391 kts | 291° |
| 2026-05-01 14:03 | 44.93364 | 25.56432 | 21800 ft | 393 kts | 291° |
| 2026-05-01 14:03 | 44.94291 | 25.52792 | 22319 ft | 396 kts | 291° |
| 2026-05-01 14:03 | 44.95223 | 25.49120 | 22829 ft | 398 kts | 291° |
| 2026-05-01 14:04 | 44.96161 | 25.45424 | 23337 ft | 401 kts | 291° |
| 2026-05-01 14:04 | 44.97104 | 25.41700 | 23806 ft | 404 kts | 291° |
| 2026-05-01 14:04 | 44.98051 | 25.37955 | 24220 ft | 407 kts | 291° |
| 2026-05-01 14:04 | 44.99004 | 25.34184 | 24625 ft | 409 kts | 291° |
| 2026-05-01 14:05 | 44.99970 | 25.30385 | 25027 ft | 411 kts | 291° |
| 2026-05-01 14:05 | 45.00958 | 25.26579 | 25400 ft | 414 kts | 291° |
| 2026-05-01 14:05 | 45.01953 | 25.22753 | 25782 ft | 416 kts | 291° |
| 2026-05-01 14:05 | 45.02971 | 25.18906 | 26153 ft | 418 kts | 294° |
| 2026-05-01 14:06 | 45.04259 | 25.15213 | 26507 ft | 419 kts | 300° |
| 2026-05-01 14:06 | 45.05693 | 25.11612 | 26883 ft | 421 kts | 301° |
| 2026-05-01 14:06 | 45.07163 | 25.08018 | 27234 ft | 423 kts | 301° |
| 2026-05-01 14:06 | 45.08644 | 25.04406 | 27571 ft | 426 kts | 301° |
| 2026-05-01 14:07 | 45.10126 | 25.00769 | 27917 ft | 428 kts | 301° |
| 2026-05-01 14:07 | 45.11606 | 24.97105 | 28245 ft | 430 kts | 301° |
| 2026-05-01 14:07 | 45.13089 | 24.93406 | 28570 ft | 432 kts | 301° |
| 2026-05-01 14:08 | 45.16053 | 24.85954 | 29239 ft | 436 kts | 301° |
| 2026-05-01 14:08 | 45.17532 | 24.82217 | 29716 ft | 434 kts | 301° |
| 2026-05-01 14:08 | 45.18999 | 24.78504 | 30262 ft | 431 kts | 301° |
| 2026-05-01 14:08 | 45.20461 | 24.74798 | 30624 ft | 430 kts | 301° |
| 2026-05-01 14:09 | 45.21926 | 24.71079 | 30867 ft | 432 kts | 301° |
| 2026-05-01 14:09 | 45.23393 | 24.67355 | 31112 ft | 434 kts | 301° |
| 2026-05-01 14:09 | 45.24861 | 24.63620 | 31409 ft | 434 kts | 301° |
| 2026-05-01 14:09 | 45.26330 | 24.59878 | 31720 ft | 434 kts | 301° |
| 2026-05-01 14:10 | 45.27798 | 24.56135 | 31995 ft | 434 kts | 301° |
| 2026-05-01 14:10 | 45.29271 | 24.52374 | 32254 ft | 435 kts | 301° |
| 2026-05-01 14:10 | 45.30739 | 24.48620 | 32549 ft | 435 kts | 301° |
| 2026-05-01 14:10 | 45.32190 | 24.44905 | 32825 ft | 436 kts | 301° |
| 2026-05-01 14:11 | 45.33679 | 24.41087 | 33098 ft | 436 kts | 301° |
| 2026-05-01 14:11 | 45.36599 | 24.33584 | 33614 ft | 438 kts | 302° |
| 2026-05-01 14:11 | 45.38079 | 24.29776 | 33758 ft | 441 kts | 302° |
| 2026-05-01 14:12 | 45.39567 | 24.25943 | 33901 ft | 444 kts | 302° |
| 2026-05-01 14:12 | 45.41062 | 24.22085 | 34117 ft | 445 kts | 302° |
| 2026-05-01 14:12 | 45.42552 | 24.18230 | 34387 ft | 444 kts | 302° |
| 2026-05-01 14:12 | 45.44038 | 24.14380 | 34626 ft | 443 kts | 302° |
| 2026-05-01 14:13 | 45.45520 | 24.10536 | 34809 ft | 444 kts | 302° |
| 2026-05-01 14:13 | 45.46505 | 24.07978 | 34924 ft | 444 kts | 302° |
| 2026-05-01 14:13 | 45.48491 | 24.02814 | 35180 ft | 445 kts | 302° |
| 2026-05-01 14:13 | 45.49978 | 23.98943 | 35371 ft | 445 kts | 302° |
| 2026-05-01 14:14 | 45.51461 | 23.95079 | 35581 ft | 444 kts | 302° |
| 2026-05-01 14:14 | 45.52941 | 23.91212 | 35782 ft | 444 kts | 302° |
| 2026-05-01 14:14 | 45.54420 | 23.87345 | 35967 ft | 445 kts | 302° |
| 2026-05-01 14:14 | 45.55900 | 23.83472 | 36167 ft | 444 kts | 302° |
| 2026-05-01 14:15 | 45.58867 | 23.75689 | 36262 ft | 448 kts | 302° |
| 2026-05-01 14:15 | 45.61830 | 23.67890 | 36256 ft | 445 kts | 302° |
| 2026-05-01 14:16 | 45.64768 | 23.60136 | 36252 ft | 442 kts | 302° |
| 2026-05-01 14:16 | 45.67682 | 23.52422 | 36256 ft | 440 kts | 302° |
| 2026-05-01 14:17 | 45.70581 | 23.44730 | 36250 ft | 439 kts | 302° |
| 2026-05-01 14:17 | 45.73477 | 23.37025 | 36250 ft | 440 kts | 302° |
| 2026-05-01 14:18 | 45.76353 | 23.29352 | 36246 ft | 441 kts | 302° |
| 2026-05-01 14:18 | 45.78786 | 23.22845 | 36257 ft | 443 kts | 302° |
| 2026-05-01 14:19 | 45.82175 | 23.13753 | 36260 ft | 447 kts | 302° |
| 2026-05-01 14:19 | 45.85106 | 23.05863 | 36254 ft | 450 kts | 302° |
| 2026-05-01 14:20 | 45.89518 | 22.93942 | 36258 ft | 452 kts | 302° |
| 2026-05-01 14:21 | 45.92464 | 22.85952 | 36256 ft | 453 kts | 302° |
| 2026-05-01 14:21 | 45.95412 | 22.77935 | 36246 ft | 454 kts | 302° |
| 2026-05-01 14:22 | 45.99819 | 22.65903 | 36249 ft | 453 kts | 302° |
| 2026-05-01 14:22 | 46.02741 | 22.57895 | 36245 ft | 452 kts | 303° |
| 2026-05-01 14:23 | 46.05656 | 22.49883 | 36248 ft | 451 kts | 303° |
| 2026-05-01 14:23 | 46.08556 | 22.41893 | 36259 ft | 450 kts | 303° |
| 2026-05-01 14:24 | 46.11449 | 22.33896 | 36250 ft | 450 kts | 303° |
| 2026-05-01 14:24 | 46.14333 | 22.25899 | 36260 ft | 449 kts | 303° |
| 2026-05-01 14:25 | 46.17208 | 22.17902 | 36255 ft | 449 kts | 303° |
| 2026-05-01 14:25 | 46.20074 | 22.09912 | 36264 ft | 449 kts | 303° |
| 2026-05-01 14:26 | 46.24353 | 21.97931 | 36264 ft | 450 kts | 303° |
| 2026-05-01 14:27 | 46.27219 | 21.89877 | 36268 ft | 451 kts | 303° |
| 2026-05-01 14:27 | 46.30089 | 21.81789 | 36273 ft | 452 kts | 304° |
| 2026-05-01 14:28 | 46.34394 | 21.69607 | 36276 ft | 454 kts | 304° |
| 2026-05-01 14:28 | 46.37269 | 21.61442 | 36282 ft | 455 kts | 304° |
| 2026-05-01 14:29 | 46.40143 | 21.53252 | 36284 ft | 456 kts | 304° |
| 2026-05-01 14:30 | 46.45862 | 21.36881 | 36284 ft | 457 kts | 304° |
| 2026-05-01 14:31 | 46.50071 | 21.24462 | 36285 ft | 461 kts | 300° |
| 2026-05-01 14:31 | 46.52391 | 21.15773 | 36286 ft | 463 kts | 297° |
| 2026-05-01 14:32 | 46.54603 | 21.07001 | 36286 ft | 462 kts | 297° |
| 2026-05-01 14:32 | 46.56469 | 20.99659 | 36287 ft | 461 kts | 298° |
| 2026-05-01 14:33 | 46.58714 | 20.90931 | 36292 ft | 460 kts | 298° |
| 2026-05-01 14:33 | 46.60946 | 20.82278 | 36296 ft | 460 kts | 298° |
| 2026-05-01 14:34 | 46.63188 | 20.73567 | 36292 ft | 459 kts | 298° |
| 2026-05-01 14:34 | 46.65419 | 20.64860 | 36299 ft | 459 kts | 298° |
| 2026-05-01 14:35 | 46.67642 | 20.56146 | 36305 ft | 459 kts | 298° |
| 2026-05-01 14:35 | 46.69858 | 20.47425 | 36303 ft | 459 kts | 298° |
| 2026-05-01 14:36 | 46.72067 | 20.38700 | 36301 ft | 459 kts | 298° |
| 2026-05-01 14:36 | 46.74269 | 20.29970 | 36304 ft | 459 kts | 298° |
| 2026-05-01 14:37 | 46.76467 | 20.21219 | 36305 ft | 459 kts | 298° |
| 2026-05-01 14:37 | 46.78659 | 20.12462 | 36314 ft | 459 kts | 297° |
| 2026-05-01 14:38 | 46.80843 | 20.03700 | 36310 ft | 459 kts | 297° |
| 2026-05-01 14:38 | 46.83023 | 19.94921 | 36318 ft | 459 kts | 297° |
| 2026-05-01 14:39 | 46.85193 | 19.86151 | 36320 ft | 459 kts | 297° |
| 2026-05-01 14:39 | 46.87357 | 19.77365 | 36318 ft | 459 kts | 297° |
| 2026-05-01 14:40 | 46.89511 | 19.68590 | 36319 ft | 459 kts | 297° |
| 2026-05-01 14:40 | 46.91660 | 19.59800 | 36314 ft | 459 kts | 297° |
| 2026-05-01 14:41 | 46.93800 | 19.51012 | 36318 ft | 458 kts | 297° |
| 2026-05-01 14:41 | 46.95931 | 19.42224 | 36313 ft | 458 kts | 297° |
| 2026-05-01 14:42 | 46.98053 | 19.33441 | 36310 ft | 457 kts | 297° |
| 2026-05-01 14:42 | 47.00165 | 19.24667 | 36314 ft | 457 kts | 297° |
| 2026-05-01 14:43 | 47.02266 | 19.15899 | 36308 ft | 457 kts | 297° |
| 2026-05-01 14:43 | 47.04367 | 19.07098 | 36306 ft | 456 kts | 297° |
| 2026-05-01 14:44 | 47.06453 | 18.98328 | 36306 ft | 456 kts | 297° |
| 2026-05-01 14:44 | 47.09556 | 18.85214 | 36311 ft | 455 kts | 296° |
| 2026-05-01 14:45 | 47.12659 | 18.72022 | 36312 ft | 456 kts | 296° |
| 2026-05-01 14:46 | 47.14718 | 18.63220 | 36316 ft | 456 kts | 296° |
| 2026-05-01 14:46 | 47.17796 | 18.49998 | 36319 ft | 456 kts | 296° |
| 2026-05-01 14:47 | 47.19840 | 18.41174 | 36311 ft | 456 kts | 296° |
| 2026-05-01 14:48 | 47.22894 | 18.27921 | 36319 ft | 456 kts | 296° |
| 2026-05-01 14:48 | 47.25937 | 18.14637 | 36319 ft | 456 kts | 296° |
| 2026-05-01 14:49 | 47.29964 | 17.96925 | 36330 ft | 456 kts | 295° |
| 2026-05-01 14:50 | 47.33964 | 17.79183 | 36335 ft | 455 kts | 295° |
| 2026-05-01 14:51 | 47.36922 | 17.65969 | 36338 ft | 454 kts | 295° |
| 2026-05-01 14:52 | 47.39873 | 17.52701 | 36340 ft | 453 kts | 295° |
| 2026-05-01 14:53 | 47.42801 | 17.39456 | 36338 ft | 452 kts | 295° |
| 2026-05-01 14:53 | 47.44741 | 17.30633 | 36344 ft | 452 kts | 295° |
| 2026-05-01 14:54 | 47.46676 | 17.21798 | 36341 ft | 452 kts | 295° |
| 2026-05-01 14:54 | 47.48607 | 17.12944 | 36340 ft | 452 kts | 294° |
| 2026-05-01 14:55 | 47.50528 | 17.04093 | 36335 ft | 452 kts | 294° |
| 2026-05-01 14:55 | 47.52444 | 16.95230 | 36335 ft | 453 kts | 294° |
| 2026-05-01 14:56 | 47.54355 | 16.86349 | 36335 ft | 453 kts | 294° |
| 2026-05-01 14:56 | 47.56262 | 16.77457 | 36338 ft | 453 kts | 294° |
| 2026-05-01 14:57 | 47.58401 | 16.68720 | 36330 ft | 450 kts | 298° |
| 2026-05-01 14:57 | 47.61975 | 16.55871 | 36334 ft | 449 kts | 299° |
| 2026-05-01 14:58 | 47.64340 | 16.47289 | 36335 ft | 449 kts | 298° |
| 2026-05-01 14:58 | 47.66667 | 16.38706 | 36345 ft | 449 kts | 298° |
| 2026-05-01 14:59 | 47.68980 | 16.30105 | 36337 ft | 448 kts | 298° |
| 2026-05-01 14:59 | 47.71281 | 16.21511 | 36344 ft | 448 kts | 298° |
| 2026-05-01 15:00 | 47.74721 | 16.08609 | 36338 ft | 447 kts | 298° |
| 2026-05-01 15:01 | 47.77001 | 16.00020 | 36346 ft | 446 kts | 298° |
| 2026-05-01 15:01 | 47.79273 | 15.91432 | 36340 ft | 447 kts | 298° |
| 2026-05-01 15:02 | 47.81537 | 15.82839 | 36350 ft | 446 kts | 297° |
| 2026-05-01 15:02 | 47.83778 | 15.74303 | 36352 ft | 445 kts | 297° |
| 2026-05-01 15:03 | 47.86021 | 15.65726 | 36343 ft | 445 kts | 297° |
| 2026-05-01 15:03 | 47.88258 | 15.57147 | 36353 ft | 444 kts | 297° |
| 2026-05-01 15:04 | 47.90489 | 15.48555 | 36358 ft | 444 kts | 297° |
| 2026-05-01 15:04 | 47.92710 | 15.39966 | 36347 ft | 444 kts | 297° |
| 2026-05-01 15:05 | 47.94929 | 15.31359 | 36345 ft | 445 kts | 297° |
| 2026-05-01 15:05 | 47.97139 | 15.22750 | 36349 ft | 445 kts | 297° |
| 2026-05-01 15:06 | 47.99350 | 15.14106 | 36361 ft | 446 kts | 296° |
| 2026-05-01 15:06 | 48.01559 | 15.05441 | 36348 ft | 447 kts | 296° |
| 2026-05-01 15:07 | 48.03765 | 14.96749 | 36350 ft | 447 kts | 296° |
| 2026-05-01 15:07 | 48.05965 | 14.88047 | 36349 ft | 448 kts | 296° |
| 2026-05-01 15:08 | 48.08156 | 14.79345 | 36348 ft | 448 kts | 296° |
| 2026-05-01 15:08 | 48.10346 | 14.70616 | 36354 ft | 448 kts | 296° |
| 2026-05-01 15:09 | 48.12526 | 14.61896 | 36354 ft | 447 kts | 296° |
| 2026-05-01 15:09 | 48.14684 | 14.53226 | 36341 ft | 447 kts | 295° |
| 2026-05-01 15:10 | 48.16848 | 14.44503 | 36348 ft | 447 kts | 295° |
| 2026-05-01 15:10 | 48.20079 | 14.31411 | 36347 ft | 446 kts | 295° |
| 2026-05-01 15:11 | 48.23288 | 14.18334 | 36343 ft | 445 kts | 295° |
| 2026-05-01 15:12 | 48.25415 | 14.09619 | 36344 ft | 444 kts | 295° |
| 2026-05-01 15:12 | 48.28591 | 13.96552 | 36339 ft | 444 kts | 294° |
| 2026-05-01 15:14 | 48.33850 | 13.74734 | 36351 ft | 444 kts | 294° |
| 2026-05-01 15:14 | 48.36988 | 13.61613 | 36349 ft | 444 kts | 294° |
| 2026-05-01 15:15 | 48.41145 | 13.44108 | 36356 ft | 444 kts | 293° |
| 2026-05-01 15:16 | 48.45001 | 13.28098 | 36354 ft | 443 kts | 295° |
| 2026-05-01 15:18 | 48.50754 | 13.06612 | 36355 ft | 442 kts | 295° |
| 2026-05-01 15:19 | 48.55268 | 12.89383 | 36350 ft | 441 kts | 295° |
| 2026-05-01 15:19 | 48.58628 | 12.76454 | 36351 ft | 440 kts | 294° |
| 2026-05-01 15:20 | 48.61911 | 12.63753 | 36352 ft | 440 kts | 294° |
| 2026-05-01 15:21 | 48.64127 | 12.55141 | 36356 ft | 439 kts | 294° |
| 2026-05-01 15:21 | 48.66336 | 12.46523 | 36352 ft | 439 kts | 294° |
| 2026-05-01 15:22 | 48.69618 | 12.33659 | 36356 ft | 439 kts | 294° |
| 2026-05-01 15:22 | 48.71821 | 12.24983 | 36354 ft | 439 kts | 294° |
| 2026-05-01 15:23 | 48.73859 | 12.16929 | 36354 ft | 439 kts | 293° |
| 2026-05-01 15:23 | 48.75538 | 12.08501 | 36355 ft | 442 kts | 282° |
| 2026-05-01 15:24 | 48.76486 | 11.99301 | 36356 ft | 442 kts | 281° |
| 2026-05-01 15:24 | 48.77405 | 11.90078 | 36345 ft | 442 kts | 281° |
| 2026-05-01 15:25 | 48.79050 | 11.81196 | 36349 ft | 436 kts | 298° |
| 2026-05-01 15:25 | 48.82239 | 11.73433 | 36344 ft | 433 kts | 306° |
| 2026-05-01 15:26 | 48.83909 | 11.69678 | 36210 ft | 427 kts | 306° |
| 2026-05-01 15:26 | 48.85555 | 11.65968 | 35918 ft | 420 kts | 306° |
| 2026-05-01 15:26 | 48.87163 | 11.62313 | 35664 ft | 415 kts | 306° |
| 2026-05-01 15:26 | 48.88755 | 11.58664 | 35414 ft | 411 kts | 306° |
| 2026-05-01 15:27 | 48.90322 | 11.55050 | 35165 ft | 409 kts | 306° |
| 2026-05-01 15:27 | 48.91875 | 11.51453 | 34922 ft | 407 kts | 305° |
| 2026-05-01 15:27 | 48.93421 | 11.47860 | 34683 ft | 405 kts | 305° |
| 2026-05-01 15:28 | 48.96487 | 11.40714 | 34181 ft | 402 kts | 305° |
| 2026-05-01 15:28 | 48.98008 | 11.37159 | 33907 ft | 401 kts | 305° |
| 2026-05-01 15:28 | 48.99530 | 11.33600 | 33624 ft | 400 kts | 305° |
| 2026-05-01 15:29 | 49.02545 | 11.26530 | 33038 ft | 393 kts | 305° |
| 2026-05-01 15:29 | 49.04024 | 11.23056 | 32669 ft | 390 kts | 305° |
| 2026-05-01 15:29 | 49.06952 | 11.16167 | 31950 ft | 385 kts | 305° |
| 2026-05-01 15:30 | 49.09842 | 11.09351 | 31239 ft | 380 kts | 305° |
| 2026-05-01 15:31 | 49.15555 | 10.95829 | 29752 ft | 379 kts | 305° |
| 2026-05-01 15:31 | 49.18363 | 10.89151 | 29011 ft | 373 kts | 305° |
| 2026-05-01 15:32 | 49.21138 | 10.82536 | 28277 ft | 367 kts | 304° |
| 2026-05-01 15:32 | 49.23880 | 10.75988 | 27532 ft | 362 kts | 305° |
| 2026-05-01 15:33 | 49.27930 | 10.66286 | 26459 ft | 359 kts | 305° |
| 2026-05-01 15:34 | 49.31967 | 10.56578 | 25414 ft | 361 kts | 304° |